sensor_id;sensor_type;location;lat;lon;timestamp;temperature;humidity
1546;DHT22;766;51.502;9.752;2023-05-16T00:02:11;12.00;99.90
1546;DHT22;766;51.502;9.752;2023-05-16T00:04:40;12.00;99.90
1546;DHT22;766;51.502;9.752;2023-05-16T00:07:12;12.10;99.90
1546;DHT22;766;51.502;9.752;2023-05-16T00:09:40;12.00;99.90
1546;DHT22;766;51.502;9.752;2023-05-16T00:12:09;12.00;99.90
1546;DHT22;766;51.502;9.752;2023-05-16T00:14:37;12.10;99.90
1546;DHT22;766;51.502;9.752;2023-05-16T00:17:06;12.00;99.90
1546;DHT22;766;51.502;9.752;2023-05-16T00:19:38;12.00;99.90
1546;DHT22;766;51.502;9.752;2023-05-16T00:22:11;11.90;99.90
1546;DHT22;766;51.502;9.752;2023-05-16T00:24:41;12.00;99.90
1546;DHT22;766;51.502;9.752;2023-05-16T00:27:09;11.90;99.90
1546;DHT22;766;51.502;9.752;2023-05-16T00:29:41;11.80;99.90
1546;DHT22;766;51.502;9.752;2023-05-16T00:32:10;11.90;99.90
1546;DHT22;766;51.502;9.752;2023-05-16T00:34:39;12.00;99.90
1546;DHT22;766;51.502;9.752;2023-05-16T00:37:08;12.00;99.90
1546;DHT22;766;51.502;9.752;2023-05-16T00:39:46;12.00;99.90
1546;DHT22;766;51.502;9.752;2023-05-16T00:42:14;12.10;99.90
1546;DHT22;766;51.502;9.752;2023-05-16T00:44:43;12.00;99.90
1546;DHT22;766;51.502;9.752;2023-05-16T00:47:12;11.90;99.90
1546;DHT22;766;51.502;9.752;2023-05-16T00:49:41;11.90;99.90
1546;DHT22;766;51.502;9.752;2023-05-16T00:52:10;11.90;99.90
1546;DHT22;766;51.502;9.752;2023-05-16T00:54:38;11.90;99.90
1546;DHT22;766;51.502;9.752;2023-05-16T00:57:08;11.90;99.90
1546;DHT22;766;51.502;9.752;2023-05-16T00:59:38;12.00;99.90
1546;DHT22;766;51.502;9.752;2023-05-16T01:02:08;11.80;99.90
1546;DHT22;766;51.502;9.752;2023-05-16T01:04:36;11.80;99.90
1546;DHT22;766;51.502;9.752;2023-05-16T01:07:05;11.80;99.90
1546;DHT22;766;51.502;9.752;2023-05-16T01:09:36;11.60;99.90
1546;DHT22;766;51.502;9.752;2023-05-16T01:12:10;11.70;99.90
1546;DHT22;766;51.502;9.752;2023-05-16T01:14:47;11.70;99.90
1546;DHT22;766;51.502;9.752;2023-05-16T01:17:25;11.60;99.90
1546;DHT22;766;51.502;9.752;2023-05-16T01:20:04;11.50;99.90
1546;DHT22;766;51.502;9.752;2023-05-16T01:22:49;11.50;99.90
1546;DHT22;766;51.502;9.752;2023-05-16T01:25:31;11.50;99.90
1546;DHT22;766;51.502;9.752;2023-05-16T01:28:11;11.50;99.90
1546;DHT22;766;51.502;9.752;2023-05-16T01:30:43;11.40;99.90
1546;DHT22;766;51.502;9.752;2023-05-16T01:33:12;11.50;99.90
1546;DHT22;766;51.502;9.752;2023-05-16T01:35:50;11.50;99.90
1546;DHT22;766;51.502;9.752;2023-05-16T01:38:25;11.40;99.90
1546;DHT22;766;51.502;9.752;2023-05-16T01:41:05;11.50;99.90
1546;DHT22;766;51.502;9.752;2023-05-16T01:43:41;11.40;99.90
1546;DHT22;766;51.502;9.752;2023-05-16T01:46:14;11.30;99.90
1546;DHT22;766;51.502;9.752;2023-05-16T01:48:51;11.20;99.90
1546;DHT22;766;51.502;9.752;2023-05-16T01:51:21;11.10;99.90
1546;DHT22;766;51.502;9.752;2023-05-16T01:53:53;11.20;99.90
1546;DHT22;766;51.502;9.752;2023-05-16T01:56:24;11.30;99.90
1546;DHT22;766;51.502;9.752;2023-05-16T01:58:55;11.30;99.90
1546;DHT22;766;51.502;9.752;2023-05-16T02:01:25;11.10;99.90
1546;DHT22;766;51.502;9.752;2023-05-16T02:03:54;11.20;99.90
1546;DHT22;766;51.502;9.752;2023-05-16T02:06:24;11.20;99.90
1546;DHT22;766;51.502;9.752;2023-05-16T02:08:54;11.20;99.90
1546;DHT22;766;51.502;9.752;2023-05-16T02:11:22;11.20;99.90
1546;DHT22;766;51.502;9.752;2023-05-16T02:13:55;11.00;99.90
1546;DHT22;766;51.502;9.752;2023-05-16T02:16:24;11.10;99.90
1546;DHT22;766;51.502;9.752;2023-05-16T02:18:53;11.20;99.90
1546;DHT22;766;51.502;9.752;2023-05-16T02:21:22;11.10;99.90
1546;DHT22;766;51.502;9.752;2023-05-16T02:23:52;11.20;99.90
1546;DHT22;766;51.502;9.752;2023-05-16T02:26:22;11.00;99.90
1546;DHT22;766;51.502;9.752;2023-05-16T02:28:51;11.10;99.90
1546;DHT22;766;51.502;9.752;2023-05-16T02:31:28;11.00;99.90
1546;DHT22;766;51.502;9.752;2023-05-16T02:33:57;11.10;99.90
1546;DHT22;766;51.502;9.752;2023-05-16T02:36:29;11.10;99.90
1546;DHT22;766;51.502;9.752;2023-05-16T02:38:59;11.00;99.90
1546;DHT22;766;51.502;9.752;2023-05-16T02:41:27;10.90;99.90
1546;DHT22;766;51.502;9.752;2023-05-16T02:43:56;10.90;99.90
1546;DHT22;766;51.502;9.752;2023-05-16T02:46:30;10.90;99.90
1546;DHT22;766;51.502;9.752;2023-05-16T02:49:02;10.90;99.90
1546;DHT22;766;51.502;9.752;2023-05-16T02:51:30;10.80;99.90
1546;DHT22;766;51.502;9.752;2023-05-16T02:53:59;10.90;99.90
1546;DHT22;766;51.502;9.752;2023-05-16T02:56:27;10.70;99.90
1546;DHT22;766;51.502;9.752;2023-05-16T02:58:59;10.70;99.90
1546;DHT22;766;51.502;9.752;2023-05-16T03:01:29;10.80;99.90
1546;DHT22;766;51.502;9.752;2023-05-16T03:03:58;10.80;99.90
1546;DHT22;766;51.502;9.752;2023-05-16T03:06:26;10.90;99.90
1546;DHT22;766;51.502;9.752;2023-05-16T03:08:56;10.80;99.90
1546;DHT22;766;51.502;9.752;2023-05-16T03:11:25;10.90;99.90
1546;DHT22;766;51.502;9.752;2023-05-16T03:13:55;10.70;99.90
1546;DHT22;766;51.502;9.752;2023-05-16T03:16:29;10.70;99.90
1546;DHT22;766;51.502;9.752;2023-05-16T03:18:57;10.70;99.90
1546;DHT22;766;51.502;9.752;2023-05-16T03:21:26;10.80;99.90
1546;DHT22;766;51.502;9.752;2023-05-16T03:23:54;10.80;99.90
1546;DHT22;766;51.502;9.752;2023-05-16T03:26:23;10.80;99.90
1546;DHT22;766;51.502;9.752;2023-05-16T03:28:52;10.80;99.90
1546;DHT22;766;51.502;9.752;2023-05-16T03:31:23;10.70;99.90
1546;DHT22;766;51.502;9.752;2023-05-16T03:33:53;10.70;99.90
1546;DHT22;766;51.502;9.752;2023-05-16T03:36:22;10.60;99.90
1546;DHT22;766;51.502;9.752;2023-05-16T03:38:51;10.60;99.90
1546;DHT22;766;51.502;9.752;2023-05-16T03:41:19;10.50;99.90
1546;DHT22;766;51.502;9.752;2023-05-16T03:43:48;10.50;99.90
1546;DHT22;766;51.502;9.752;2023-05-16T03:46:16;10.50;99.90
1546;DHT22;766;51.502;9.752;2023-05-16T03:48:45;10.70;99.90
1546;DHT22;766;51.502;9.752;2023-05-16T03:51:16;10.50;99.90
1546;DHT22;766;51.502;9.752;2023-05-16T03:53:44;10.40;99.90
1546;DHT22;766;51.502;9.752;2023-05-16T03:56:13;10.40;99.90
1546;DHT22;766;51.502;9.752;2023-05-16T03:58:41;10.40;99.90
1546;DHT22;766;51.502;9.752;2023-05-16T04:01:10;10.40;99.90
1546;DHT22;766;51.502;9.752;2023-05-16T04:03:41;10.50;99.90
1546;DHT22;766;51.502;9.752;2023-05-16T04:06:09;10.40;99.90
1546;DHT22;766;51.502;9.752;2023-05-16T04:08:39;10.40;99.90
1546;DHT22;766;51.502;9.752;2023-05-16T04:11:09;10.60;99.90
1546;DHT22;766;51.502;9.752;2023-05-16T04:13:40;10.60;99.90
1546;DHT22;766;51.502;9.752;2023-05-16T04:16:09;10.50;99.90
1546;DHT22;766;51.502;9.752;2023-05-16T04:18:38;10.50;99.90
1546;DHT22;766;51.502;9.752;2023-05-16T04:21:08;10.40;99.90
1546;DHT22;766;51.502;9.752;2023-05-16T04:23:42;10.30;99.90
1546;DHT22;766;51.502;9.752;2023-05-16T04:26:10;10.50;99.90
1546;DHT22;766;51.502;9.752;2023-05-16T04:28:38;10.30;99.90
1546;DHT22;766;51.502;9.752;2023-05-16T04:31:07;10.30;99.90
1546;DHT22;766;51.502;9.752;2023-05-16T04:33:35;10.40;99.90
1546;DHT22;766;51.502;9.752;2023-05-16T04:36:04;10.40;99.90
1546;DHT22;766;51.502;9.752;2023-05-16T04:38:36;10.30;99.90
1546;DHT22;766;51.502;9.752;2023-05-16T04:41:06;10.30;99.90
1546;DHT22;766;51.502;9.752;2023-05-16T04:43:34;10.40;99.90
1546;DHT22;766;51.502;9.752;2023-05-16T04:46:02;10.50;99.90
1546;DHT22;766;51.502;9.752;2023-05-16T04:48:31;10.30;99.90
1546;DHT22;766;51.502;9.752;2023-05-16T04:50:59;10.40;99.90
1546;DHT22;766;51.502;9.752;2023-05-16T04:53:27;10.40;99.90
1546;DHT22;766;51.502;9.752;2023-05-16T04:55:56;10.50;99.90
1546;DHT22;766;51.502;9.752;2023-05-16T04:58:26;10.60;99.90
1546;DHT22;766;51.502;9.752;2023-05-16T05:00:54;10.70;99.90
1546;DHT22;766;51.502;9.752;2023-05-16T05:03:23;10.50;99.90
1546;DHT22;766;51.502;9.752;2023-05-16T05:05:51;10.40;99.90
1546;DHT22;766;51.502;9.752;2023-05-16T05:08:20;10.50;99.90
1546;DHT22;766;51.502;9.752;2023-05-16T05:10:48;10.50;99.90
1546;DHT22;766;51.502;9.752;2023-05-16T05:13:17;10.40;99.90
1546;DHT22;766;51.502;9.752;2023-05-16T05:15:46;10.40;99.90
1546;DHT22;766;51.502;9.752;2023-05-16T05:18:16;10.40;99.90
1546;DHT22;766;51.502;9.752;2023-05-16T05:20:45;10.40;99.90
1546;DHT22;766;51.502;9.752;2023-05-16T05:23:13;10.40;99.90
1546;DHT22;766;51.502;9.752;2023-05-16T05:25:41;10.30;99.90
1546;DHT22;766;51.502;9.752;2023-05-16T05:28:10;10.30;99.90
1546;DHT22;766;51.502;9.752;2023-05-16T05:30:38;10.30;99.90
1546;DHT22;766;51.502;9.752;2023-05-16T05:33:13;10.30;99.90
1546;DHT22;766;51.502;9.752;2023-05-16T05:35:41;10.20;99.90
1546;DHT22;766;51.502;9.752;2023-05-16T05:38:10;10.10;99.90
1546;DHT22;766;51.502;9.752;2023-05-16T05:40:38;10.20;99.90
1546;DHT22;766;51.502;9.752;2023-05-16T05:43:06;10.20;99.90
1546;DHT22;766;51.502;9.752;2023-05-16T05:45:35;10.00;99.90
1546;DHT22;766;51.502;9.752;2023-05-16T05:48:04;10.00;99.90
1546;DHT22;766;51.502;9.752;2023-05-16T05:50:34;10.10;99.90
1546;DHT22;766;51.502;9.752;2023-05-16T05:53:02;10.10;99.90
1546;DHT22;766;51.502;9.752;2023-05-16T05:55:30;10.20;99.90
1546;DHT22;766;51.502;9.752;2023-05-16T05:57:59;10.20;99.90
1546;DHT22;766;51.502;9.752;2023-05-16T06:00:27;10.20;99.90
1546;DHT22;766;51.502;9.752;2023-05-16T06:02:56;10.20;99.90
1546;DHT22;766;51.502;9.752;2023-05-16T06:05:25;10.30;99.90
1546;DHT22;766;51.502;9.752;2023-05-16T06:07:55;10.40;99.90
1546;DHT22;766;51.502;9.752;2023-05-16T06:10:24;10.50;99.90
1546;DHT22;766;51.502;9.752;2023-05-16T06:12:52;10.40;99.90
1546;DHT22;766;51.502;9.752;2023-05-16T06:15:21;10.20;99.90
1546;DHT22;766;51.502;9.752;2023-05-16T06:17:50;10.20;99.90
1546;DHT22;766;51.502;9.752;2023-05-16T06:20:19;10.40;99.90
1546;DHT22;766;51.502;9.752;2023-05-16T06:22:48;10.40;99.90
1546;DHT22;766;51.502;9.752;2023-05-16T06:25:18;10.50;99.90
1546;DHT22;766;51.502;9.752;2023-05-16T06:27:46;10.20;99.90
1546;DHT22;766;51.502;9.752;2023-05-16T06:30:15;10.10;99.90
1546;DHT22;766;51.502;9.752;2023-05-16T06:32:43;10.20;99.90
1546;DHT22;766;51.502;9.752;2023-05-16T06:35:12;10.20;99.90
1546;DHT22;766;51.502;9.752;2023-05-16T06:37:40;10.20;99.90
1546;DHT22;766;51.502;9.752;2023-05-16T06:40:10;10.20;99.90
1546;DHT22;766;51.502;9.752;2023-05-16T06:42:40;10.20;99.90
1546;DHT22;766;51.502;9.752;2023-05-16T06:45:09;10.20;99.90
1546;DHT22;766;51.502;9.752;2023-05-16T06:47:38;10.20;99.90
1546;DHT22;766;51.502;9.752;2023-05-16T06:50:08;10.10;99.90
1546;DHT22;766;51.502;9.752;2023-05-16T06:52:37;10.20;99.90
1546;DHT22;766;51.502;9.752;2023-05-16T06:55:05;10.20;99.90
1546;DHT22;766;51.502;9.752;2023-05-16T06:57:34;10.20;99.90
1546;DHT22;766;51.502;9.752;2023-05-16T07:00:05;10.30;99.90
1546;DHT22;766;51.502;9.752;2023-05-16T07:02:34;10.30;99.90
1546;DHT22;766;51.502;9.752;2023-05-16T07:05:02;10.30;99.90
1546;DHT22;766;51.502;9.752;2023-05-16T07:07:31;10.40;99.90
1546;DHT22;766;51.502;9.752;2023-05-16T07:09:59;10.50;99.90
1546;DHT22;766;51.502;9.752;2023-05-16T07:12:28;10.50;99.90
1546;DHT22;766;51.502;9.752;2023-05-16T07:14:56;10.60;99.90
1546;DHT22;766;51.502;9.752;2023-05-16T07:17:26;10.50;99.90
1546;DHT22;766;51.502;9.752;2023-05-16T07:19:54;10.40;99.90
1546;DHT22;766;51.502;9.752;2023-05-16T07:22:22;10.40;99.90
1546;DHT22;766;51.502;9.752;2023-05-16T07:24:51;10.30;99.90
1546;DHT22;766;51.502;9.752;2023-05-16T07:27:23;10.30;99.90
1546;DHT22;766;51.502;9.752;2023-05-16T07:29:51;10.30;99.90
1546;DHT22;766;51.502;9.752;2023-05-16T07:32:22;10.40;99.90
1546;DHT22;766;51.502;9.752;2023-05-16T07:34:52;10.40;99.90
1546;DHT22;766;51.502;9.752;2023-05-16T07:37:20;10.20;99.90
1546;DHT22;766;51.502;9.752;2023-05-16T07:40:14;10.40;99.90
1546;DHT22;766;51.502;9.752;2023-05-16T07:42:48;10.70;99.90
1546;DHT22;766;51.502;9.752;2023-05-16T07:45:19;11.00;99.90
1546;DHT22;766;51.502;9.752;2023-05-16T07:47:47;11.30;99.90
1546;DHT22;766;51.502;9.752;2023-05-16T07:50:17;11.40;99.90
1546;DHT22;766;51.502;9.752;2023-05-16T07:52:45;11.40;99.90
1546;DHT22;766;51.502;9.752;2023-05-16T07:55:14;11.60;99.90
1546;DHT22;766;51.502;9.752;2023-05-16T07:57:43;11.60;99.90
1546;DHT22;766;51.502;9.752;2023-05-16T08:00:13;11.70;99.90
1546;DHT22;766;51.502;9.752;2023-05-16T08:02:41;11.80;99.90
1546;DHT22;766;51.502;9.752;2023-05-16T08:05:10;11.60;99.90
1546;DHT22;766;51.502;9.752;2023-05-16T08:07:40;11.60;99.90
1546;DHT22;766;51.502;9.752;2023-05-16T08:10:08;11.60;99.90
1546;DHT22;766;51.502;9.752;2023-05-16T08:12:39;11.70;99.90
1546;DHT22;766;51.502;9.752;2023-05-16T08:15:08;12.00;99.90
1546;DHT22;766;51.502;9.752;2023-05-16T08:17:40;12.20;99.90
1546;DHT22;766;51.502;9.752;2023-05-16T08:20:09;12.20;99.90
1546;DHT22;766;51.502;9.752;2023-05-16T08:22:39;12.20;99.90
1546;DHT22;766;51.502;9.752;2023-05-16T08:25:08;12.20;99.90
1546;DHT22;766;51.502;9.752;2023-05-16T08:27:36;12.30;99.90
1546;DHT22;766;51.502;9.752;2023-05-16T08:30:08;12.40;99.90
1546;DHT22;766;51.502;9.752;2023-05-16T08:32:38;12.30;99.90
1546;DHT22;766;51.502;9.752;2023-05-16T08:35:07;12.40;99.90
1546;DHT22;766;51.502;9.752;2023-05-16T08:37:37;12.30;99.90
1546;DHT22;766;51.502;9.752;2023-05-16T08:40:09;11.90;99.90
1546;DHT22;766;51.502;9.752;2023-05-16T08:42:38;11.90;99.90
1546;DHT22;766;51.502;9.752;2023-05-16T08:45:10;12.10;99.90
1546;DHT22;766;51.502;9.752;2023-05-16T08:47:39;12.10;99.90
1546;DHT22;766;51.502;9.752;2023-05-16T08:50:09;12.10;99.90
1546;DHT22;766;51.502;9.752;2023-05-16T08:52:39;12.10;99.90
1546;DHT22;766;51.502;9.752;2023-05-16T08:55:11;12.10;99.90
1546;DHT22;766;51.502;9.752;2023-05-16T08:57:40;12.30;99.90
1546;DHT22;766;51.502;9.752;2023-05-16T09:00:11;12.50;99.90
1546;DHT22;766;51.502;9.752;2023-05-16T09:02:40;12.70;99.90
1546;DHT22;766;51.502;9.752;2023-05-16T09:05:12;13.00;99.90
1546;DHT22;766;51.502;9.752;2023-05-16T09:07:40;13.30;99.90
1546;DHT22;766;51.502;9.752;2023-05-16T09:10:13;14.70;99.90
1546;DHT22;766;51.502;9.752;2023-05-16T09:12:41;15.90;99.90
1546;DHT22;766;51.502;9.752;2023-05-16T09:15:10;15.80;99.90
1546;DHT22;766;51.502;9.752;2023-05-16T09:17:42;15.70;99.90
1546;DHT22;766;51.502;9.752;2023-05-16T09:20:12;16.00;99.90
1546;DHT22;766;51.502;9.752;2023-05-16T09:22:50;16.10;99.90
1546;DHT22;766;51.502;9.752;2023-05-16T09:25:22;16.70;99.90
1546;DHT22;766;51.502;9.752;2023-05-16T09:28:12;16.90;99.90
1546;DHT22;766;51.502;9.752;2023-05-16T09:30:45;16.50;99.90
1546;DHT22;766;51.502;9.752;2023-05-16T09:33:15;16.50;99.90
1546;DHT22;766;51.502;9.752;2023-05-16T09:35:43;16.50;99.90
1546;DHT22;766;51.502;9.752;2023-05-16T09:38:15;16.20;99.90
1546;DHT22;766;51.502;9.752;2023-05-16T09:40:49;16.00;99.90
1546;DHT22;766;51.502;9.752;2023-05-16T09:43:22;16.50;99.90
1546;DHT22;766;51.502;9.752;2023-05-16T09:45:50;17.30;99.90
1546;DHT22;766;51.502;9.752;2023-05-16T09:48:20;18.50;99.90
1546;DHT22;766;51.502;9.752;2023-05-16T09:50:50;19.90;99.90
1546;DHT22;766;51.502;9.752;2023-05-16T09:53:26;21.00;99.90
1546;DHT22;766;51.502;9.752;2023-05-16T09:56:03;21.10;99.90
1546;DHT22;766;51.502;9.752;2023-05-16T09:58:35;19.90;99.90
1546;DHT22;766;51.502;9.752;2023-05-16T10:01:05;18.40;99.90
1546;DHT22;766;51.502;9.752;2023-05-16T10:03:35;17.20;99.90
1546;DHT22;766;51.502;9.752;2023-05-16T10:06:05;16.90;99.90
1546;DHT22;766;51.502;9.752;2023-05-16T10:08:35;16.80;99.90
1546;DHT22;766;51.502;9.752;2023-05-16T10:11:06;16.60;99.90
1546;DHT22;766;51.502;9.752;2023-05-16T10:13:35;17.50;99.90
1546;DHT22;766;51.502;9.752;2023-05-16T10:16:06;18.20;99.90
1546;DHT22;766;51.502;9.752;2023-05-16T10:18:35;17.40;99.90
1546;DHT22;766;51.502;9.752;2023-05-16T10:21:08;16.80;99.90
1546;DHT22;766;51.502;9.752;2023-05-16T10:23:40;16.80;99.90
1546;DHT22;766;51.502;9.752;2023-05-16T10:26:11;17.60;99.90
1546;DHT22;766;51.502;9.752;2023-05-16T10:28:41;19.80;99.90
1546;DHT22;766;51.502;9.752;2023-05-16T10:31:10;20.80;99.90
1546;DHT22;766;51.502;9.752;2023-05-16T10:33:38;21.50;99.90
1546;DHT22;766;51.502;9.752;2023-05-16T10:36:07;20.30;99.90
1546;DHT22;766;51.502;9.752;2023-05-16T10:38:37;19.30;99.90
1546;DHT22;766;51.502;9.752;2023-05-16T10:41:06;18.90;99.90
1546;DHT22;766;51.502;9.752;2023-05-16T10:43:36;19.10;99.90
1546;DHT22;766;51.502;9.752;2023-05-16T10:46:07;19.20;99.90
1546;DHT22;766;51.502;9.752;2023-05-16T10:48:37;19.30;99.90
1546;DHT22;766;51.502;9.752;2023-05-16T10:51:35;20.30;99.90
1546;DHT22;766;51.502;9.752;2023-05-16T10:54:05;20.50;99.90
1546;DHT22;766;51.502;9.752;2023-05-16T10:56:33;19.60;99.90
1546;DHT22;766;51.502;9.752;2023-05-16T10:59:03;18.40;99.90
1546;DHT22;766;51.502;9.752;2023-05-16T11:01:33;17.60;99.90
1546;DHT22;766;51.502;9.752;2023-05-16T11:04:10;16.70;99.90
1546;DHT22;766;51.502;9.752;2023-05-16T11:06:49;16.20;99.90
1546;DHT22;766;51.502;9.752;2023-05-16T11:09:22;15.70;99.90
1546;DHT22;766;51.502;9.752;2023-05-16T11:12:00;15.80;99.90
1546;DHT22;766;51.502;9.752;2023-05-16T11:14:37;15.70;99.90
1546;DHT22;766;51.502;9.752;2023-05-16T11:17:10;15.70;99.90
1546;DHT22;766;51.502;9.752;2023-05-16T11:19:41;16.60;99.90
1546;DHT22;766;51.502;9.752;2023-05-16T11:22:24;17.20;99.90
1546;DHT22;766;51.502;9.752;2023-05-16T11:24:55;18.40;99.90
1546;DHT22;766;51.502;9.752;2023-05-16T11:27:25;18.70;99.90
1546;DHT22;766;51.502;9.752;2023-05-16T11:29:58;17.90;99.90
1546;DHT22;766;51.502;9.752;2023-05-16T11:32:30;17.10;99.90
1546;DHT22;766;51.502;9.752;2023-05-16T11:34:59;16.70;99.90
1546;DHT22;766;51.502;9.752;2023-05-16T11:37:27;16.30;99.90
1546;DHT22;766;51.502;9.752;2023-05-16T11:39:58;16.10;99.90
1546;DHT22;766;51.502;9.752;2023-05-16T11:42:29;16.10;99.90
1546;DHT22;766;51.502;9.752;2023-05-16T11:45:05;15.90;99.90
1546;DHT22;766;51.502;9.752;2023-05-16T11:47:35;16.00;99.90
1546;DHT22;766;51.502;9.752;2023-05-16T11:50:05;16.20;99.90
1546;DHT22;766;51.502;9.752;2023-05-16T11:52:36;16.50;99.90
1546;DHT22;766;51.502;9.752;2023-05-16T11:55:05;17.40;99.90
1546;DHT22;766;51.502;9.752;2023-05-16T11:57:34;18.20;99.90
1546;DHT22;766;51.502;9.752;2023-05-16T12:00:07;18.10;99.90
1546;DHT22;766;51.502;9.752;2023-05-16T12:02:41;17.40;99.90
1546;DHT22;766;51.502;9.752;2023-05-16T12:05:10;17.10;99.90
1546;DHT22;766;51.502;9.752;2023-05-16T12:07:39;17.10;99.90
1546;DHT22;766;51.502;9.752;2023-05-16T12:10:08;17.30;99.90
1546;DHT22;766;51.502;9.752;2023-05-16T12:12:39;17.40;99.90
1546;DHT22;766;51.502;9.752;2023-05-16T12:15:10;17.30;99.90
1546;DHT22;766;51.502;9.752;2023-05-16T12:17:40;17.50;99.90
1546;DHT22;766;51.502;9.752;2023-05-16T12:20:10;18.30;99.90
1546;DHT22;766;51.502;9.752;2023-05-16T12:22:40;18.80;99.90
1546;DHT22;766;51.502;9.752;2023-05-16T12:25:20;19.30;99.90
1546;DHT22;766;51.502;9.752;2023-05-16T12:27:48;19.70;99.90
1546;DHT22;766;51.502;9.752;2023-05-16T12:30:19;19.30;99.90
1546;DHT22;766;51.502;9.752;2023-05-16T12:32:52;18.60;99.90
1546;DHT22;766;51.502;9.752;2023-05-16T12:35:23;17.90;99.90
1546;DHT22;766;51.502;9.752;2023-05-16T12:41:01;16.80;99.90
1546;DHT22;766;51.502;9.752;2023-05-16T12:43:48;16.80;99.90
1546;DHT22;766;51.502;9.752;2023-05-16T12:46:18;17.00;99.90
1546;DHT22;766;51.502;9.752;2023-05-16T12:48:47;17.20;99.90
1546;DHT22;766;51.502;9.752;2023-05-16T12:51:16;17.30;99.90
1546;DHT22;766;51.502;9.752;2023-05-16T12:53:46;17.50;99.90
1546;DHT22;766;51.502;9.752;2023-05-16T12:56:34;17.80;99.90
1546;DHT22;766;51.502;9.752;2023-05-16T12:59:02;18.00;99.90
1546;DHT22;766;51.502;9.752;2023-05-16T13:01:32;17.90;99.90
1546;DHT22;766;51.502;9.752;2023-05-16T13:04:01;17.70;99.90
1546;DHT22;766;51.502;9.752;2023-05-16T13:06:31;17.50;99.90
1546;DHT22;766;51.502;9.752;2023-05-16T13:09:19;17.30;99.90
1546;DHT22;766;51.502;9.752;2023-05-16T13:11:47;17.40;99.90
1546;DHT22;766;51.502;9.752;2023-05-16T13:14:16;17.30;99.90
1546;DHT22;766;51.502;9.752;2023-05-16T13:16:45;17.00;99.90
1546;DHT22;766;51.502;9.752;2023-05-16T13:19:15;16.70;99.90
1546;DHT22;766;51.502;9.752;2023-05-16T13:21:44;16.50;99.90
1546;DHT22;766;51.502;9.752;2023-05-16T13:24:12;16.40;99.90
1546;DHT22;766;51.502;9.752;2023-05-16T13:26:40;16.40;99.90
1546;DHT22;766;51.502;9.752;2023-05-16T13:29:09;16.40;99.90
1546;DHT22;766;51.502;9.752;2023-05-16T13:31:37;16.40;99.90
1546;DHT22;766;51.502;9.752;2023-05-16T13:34:08;16.50;99.90
1546;DHT22;766;51.502;9.752;2023-05-16T13:36:36;16.60;99.90
1546;DHT22;766;51.502;9.752;2023-05-16T13:39:20;16.50;99.90
1546;DHT22;766;51.502;9.752;2023-05-16T13:41:48;16.50;99.90
1546;DHT22;766;51.502;9.752;2023-05-16T13:44:17;16.40;99.90
1546;DHT22;766;51.502;9.752;2023-05-16T13:46:45;16.10;99.90
1546;DHT22;766;51.502;9.752;2023-05-16T13:49:15;15.90;99.90
1546;DHT22;766;51.502;9.752;2023-05-16T13:51:43;15.60;99.90
1546;DHT22;766;51.502;9.752;2023-05-16T13:54:11;15.60;99.90
1546;DHT22;766;51.502;9.752;2023-05-16T13:56:40;15.40;99.90
1546;DHT22;766;51.502;9.752;2023-05-16T13:59:08;15.60;99.90
1546;DHT22;766;51.502;9.752;2023-05-16T14:01:44;15.80;99.90
1546;DHT22;766;51.502;9.752;2023-05-16T14:04:12;15.80;99.90
1546;DHT22;766;51.502;9.752;2023-05-16T14:06:43;15.60;99.90
1546;DHT22;766;51.502;9.752;2023-05-16T14:09:11;15.70;99.90
1546;DHT22;766;51.502;9.752;2023-05-16T14:11:41;15.50;99.90
1546;DHT22;766;51.502;9.752;2023-05-16T14:14:09;15.40;99.90
1546;DHT22;766;51.502;9.752;2023-05-16T14:16:37;15.40;99.90
1546;DHT22;766;51.502;9.752;2023-05-16T14:19:09;15.70;99.90
1546;DHT22;766;51.502;9.752;2023-05-16T14:21:37;16.00;99.90
1546;DHT22;766;51.502;9.752;2023-05-16T14:24:07;16.30;99.90
1546;DHT22;766;51.502;9.752;2023-05-16T14:26:36;16.50;99.90
1546;DHT22;766;51.502;9.752;2023-05-16T14:29:04;16.70;99.90
1546;DHT22;766;51.502;9.752;2023-05-16T14:31:33;16.70;99.90
1546;DHT22;766;51.502;9.752;2023-05-16T14:34:02;16.70;99.90
1546;DHT22;766;51.502;9.752;2023-05-16T14:36:30;16.70;99.90
1546;DHT22;766;51.502;9.752;2023-05-16T14:38:59;16.70;99.90
1546;DHT22;766;51.502;9.752;2023-05-16T14:41:29;16.80;99.90
1546;DHT22;766;51.502;9.752;2023-05-16T14:43:57;16.80;99.90
1546;DHT22;766;51.502;9.752;2023-05-16T14:46:25;17.00;99.90
1546;DHT22;766;51.502;9.752;2023-05-16T14:48:54;17.00;99.90
1546;DHT22;766;51.502;9.752;2023-05-16T14:51:22;16.80;99.90
1546;DHT22;766;51.502;9.752;2023-05-16T14:53:51;16.80;99.90
1546;DHT22;766;51.502;9.752;2023-05-16T14:56:19;16.70;99.90
1546;DHT22;766;51.502;9.752;2023-05-16T14:58:49;16.50;99.90
1546;DHT22;766;51.502;9.752;2023-05-16T15:01:18;16.20;99.90
1546;DHT22;766;51.502;9.752;2023-05-16T15:03:46;15.90;99.90
1546;DHT22;766;51.502;9.752;2023-05-16T15:06:22;15.80;99.90
1546;DHT22;766;51.502;9.752;2023-05-16T15:08:51;15.70;99.90
1546;DHT22;766;51.502;9.752;2023-05-16T15:11:22;15.60;99.90
1546;DHT22;766;51.502;9.752;2023-05-16T15:13:52;15.50;99.90
1546;DHT22;766;51.502;9.752;2023-05-16T15:16:22;15.40;99.90
1546;DHT22;766;51.502;9.752;2023-05-16T15:18:51;15.10;99.90
1546;DHT22;766;51.502;9.752;2023-05-16T15:21:19;15.00;99.90
1546;DHT22;766;51.502;9.752;2023-05-16T15:23:48;15.10;99.90
1546;DHT22;766;51.502;9.752;2023-05-16T15:26:16;15.20;99.90
1546;DHT22;766;51.502;9.752;2023-05-16T15:28:45;15.40;99.90
1546;DHT22;766;51.502;9.752;2023-05-16T15:31:15;15.40;99.90
1546;DHT22;766;51.502;9.752;2023-05-16T15:33:43;15.30;99.90
1546;DHT22;766;51.502;9.752;2023-05-16T15:36:14;15.20;99.90
1546;DHT22;766;51.502;9.752;2023-05-16T15:38:42;15.20;99.90
1546;DHT22;766;51.502;9.752;2023-05-16T15:41:11;15.30;99.90
1546;DHT22;766;51.502;9.752;2023-05-16T15:44:01;15.20;99.90
1546;DHT22;766;51.502;9.752;2023-05-16T15:46:31;15.20;99.90
1546;DHT22;766;51.502;9.752;2023-05-16T15:49:00;15.20;99.90
1546;DHT22;766;51.502;9.752;2023-05-16T15:51:28;15.20;99.90
1546;DHT22;766;51.502;9.752;2023-05-16T15:53:57;15.00;99.90
1546;DHT22;766;51.502;9.752;2023-05-16T15:56:25;14.90;99.90
1546;DHT22;766;51.502;9.752;2023-05-16T15:58:54;14.80;99.90
1546;DHT22;766;51.502;9.752;2023-05-16T16:01:23;14.70;99.90
1546;DHT22;766;51.502;9.752;2023-05-16T16:03:53;14.50;99.90
1546;DHT22;766;51.502;9.752;2023-05-16T16:06:22;14.40;99.90
1546;DHT22;766;51.502;9.752;2023-05-16T16:08:50;14.40;99.90
1546;DHT22;766;51.502;9.752;2023-05-16T16:11:19;14.30;99.90
1546;DHT22;766;51.502;9.752;2023-05-16T16:13:48;14.40;99.90
1546;DHT22;766;51.502;9.752;2023-05-16T16:16:16;14.40;99.90
1546;DHT22;766;51.502;9.752;2023-05-16T16:18:45;14.40;99.90
1546;DHT22;766;51.502;9.752;2023-05-16T16:21:15;14.40;99.90
1546;DHT22;766;51.502;9.752;2023-05-16T16:23:43;14.40;99.90
1546;DHT22;766;51.502;9.752;2023-05-16T16:26:12;14.20;99.90
1546;DHT22;766;51.502;9.752;2023-05-16T16:28:40;14.10;99.90
1546;DHT22;766;51.502;9.752;2023-05-16T16:31:08;14.10;99.90
1546;DHT22;766;51.502;9.752;2023-05-16T16:33:36;14.00;99.90
1546;DHT22;766;51.502;9.752;2023-05-16T16:36:05;14.00;99.90
1546;DHT22;766;51.502;9.752;2023-05-16T16:38:36;14.00;99.90
1546;DHT22;766;51.502;9.752;2023-05-16T16:41:04;13.90;99.90